createdAt,value
2022-09-22T00:01:13.270Z,13.43
2022-09-22T00:03:42.841Z,13.03
2022-09-22T00:06:11.824Z,13.13
2022-09-22T00:08:41.175Z,13.30
2022-09-22T00:11:13.707Z,12.60
2022-09-22T00:13:41.929Z,13.27
2022-09-22T00:16:11.914Z,12.90
2022-09-22T00:18:39.291Z,13.10
2022-09-22T00:21:09.101Z,13.10
2022-09-22T00:23:37.037Z,14.43
2022-09-22T00:26:10.321Z,13.03
2022-09-22T00:28:38.502Z,13.20
2022-09-22T00:31:07.288Z,12.90
2022-09-22T00:33:37.886Z,13.40
2022-09-22T00:36:05.912Z,13.57
2022-09-22T00:38:33.914Z,13.27
2022-09-22T00:41:01.764Z,13.40
2022-09-22T00:43:30.433Z,13.27
2022-09-22T00:46:00.757Z,13.30
2022-09-22T00:48:29.615Z,13.03
2022-09-22T00:51:01.190Z,12.80
2022-09-22T00:53:29.481Z,13.43
2022-09-22T00:55:59.157Z,13.07
2022-09-22T00:58:31.288Z,13.17
2022-09-22T01:00:58.905Z,13.30
2022-09-22T01:03:29.872Z,12.70
2022-09-22T01:06:01.265Z,12.90
2022-09-22T01:08:29.642Z,12.47
2022-09-22T01:10:57.802Z,11.97
2022-09-22T01:13:28.710Z,12.30
2022-09-22T01:16:07.956Z,12.90
2022-09-22T01:18:43.377Z,13.00
2022-09-22T01:21:26.985Z,13.40
2022-09-22T01:24:12.061Z,13.13
2022-09-22T01:26:55.840Z,13.30
2022-09-22T01:29:38.941Z,13.47
2022-09-22T01:32:13.292Z,13.50
2022-09-22T01:34:44.797Z,13.40
2022-09-22T01:37:18.033Z,13.27
2022-09-22T01:39:47.201Z,13.60
2022-09-22T01:42:23.519Z,13.57
2022-09-22T01:44:53.924Z,13.53
2022-09-22T01:47:24.998Z,13.77
2022-09-22T01:49:58.062Z,14.00
2022-09-22T01:52:28.196Z,14.23
2022-09-22T01:54:58.064Z,14.07
2022-09-22T01:57:31.605Z,13.50
2022-09-22T02:00:04.186Z,13.30
2022-09-22T02:02:43.799Z,13.30
2022-09-22T02:05:15.005Z,13.07
2022-09-22T02:07:46.663Z,13.30
2022-09-22T02:10:17.665Z,13.60
2022-09-22T02:12:45.120Z,13.37
2022-09-22T02:15:26.575Z,14.00
2022-09-22T02:17:58.190Z,13.93
2022-09-22T02:20:25.735Z,14.70
2022-09-22T02:22:53.135Z,14.23
2022-09-22T02:25:21.065Z,14.70
2022-09-22T02:27:48.965Z,14.03
2022-09-22T02:30:16.349Z,14.60
2022-09-22T02:32:46.837Z,14.27
2022-09-22T02:35:15.834Z,14.03
2022-09-22T02:37:49.541Z,14.17
2022-09-22T02:40:23.190Z,14.17
2022-09-22T02:42:55.338Z,14.30
2022-09-22T02:45:25.144Z,14.07
2022-09-22T02:47:57.103Z,13.67
2022-09-22T02:50:28.120Z,14.07
2022-09-22T02:52:59.219Z,13.60
2022-09-22T02:55:26.633Z,13.83
2022-09-22T02:57:54.397Z,13.70
2022-09-22T03:00:22.236Z,13.40
2022-09-22T03:02:49.712Z,13.50
2022-09-22T03:05:17.304Z,13.60
2022-09-22T03:07:46.049Z,13.87
2022-09-22T03:10:13.489Z,13.87
2022-09-22T03:13:09.166Z,14.20
2022-09-22T03:15:34.561Z,13.87
2022-09-22T03:18:01.950Z,15.10
2022-09-22T03:20:29.404Z,13.87
2022-09-22T03:22:58.147Z,14.50
2022-09-22T03:25:25.508Z,15.13
2022-09-22T03:27:54.857Z,14.23
2022-09-22T03:30:22.304Z,14.60
2022-09-22T03:32:49.726Z,14.37
2022-09-22T03:35:17.210Z,14.97
2022-09-22T03:37:44.607Z,15.00
2022-09-22T03:40:13.548Z,15.27
2022-09-22T03:42:40.996Z,13.90
2022-09-22T03:45:10.192Z,14.00
2022-09-22T03:47:37.535Z,15.23
2022-09-22T03:50:05.732Z,15.33
2022-09-22T03:52:33.369Z,15.50
2022-09-22T03:55:02.809Z,15.10
2022-09-22T03:57:31.520Z,15.13
2022-09-22T03:59:58.934Z,15.57
2022-09-22T04:02:26.491Z,15.50
2022-09-22T04:04:53.868Z,15.60
2022-09-22T04:07:21.251Z,14.83
2022-09-22T04:09:48.601Z,15.57
2022-09-22T04:12:16.235Z,15.33
2022-09-22T04:14:44.984Z,15.63
2022-09-22T04:17:13.165Z,16.00
2022-09-22T04:19:40.557Z,16.10
2022-09-22T04:22:07.892Z,15.43
2022-09-22T04:24:35.316Z,16.53
2022-09-22T04:27:19.003Z,15.87
2022-09-22T04:29:48.986Z,15.27
2022-09-22T04:32:16.882Z,15.07
2022-09-22T04:34:44.245Z,15.17
2022-09-22T04:37:11.875Z,16.17
2022-09-22T04:39:39.352Z,15.63
2022-09-22T04:42:08.808Z,15.17
2022-09-22T04:44:36.194Z,15.10
2022-09-22T04:47:05.769Z,15.67
2022-09-22T04:49:33.240Z,14.83
2022-09-22T04:52:00.661Z,15.33
2022-09-22T04:54:28.044Z,15.40
2022-09-22T04:56:55.391Z,15.57
2022-09-22T04:59:22.758Z,15.47
2022-09-22T05:01:50.118Z,15.37
2022-09-22T05:04:19.602Z,15.97
2022-09-22T05:06:46.937Z,15.73
2022-09-22T05:09:14.604Z,15.00
2022-09-22T05:11:41.993Z,15.50
2022-09-22T05:14:09.477Z,15.77
2022-09-22T05:16:37.086Z,15.13
2022-09-22T05:19:04.526Z,15.50
2022-09-22T05:21:33.195Z,15.00
2022-09-22T05:24:00.814Z,15.07
2022-09-22T05:26:28.349Z,15.60
2022-09-22T05:28:56.019Z,14.57
2022-09-22T05:31:23.466Z,15.73
2022-09-22T05:33:51.006Z,14.63
2022-09-22T05:36:18.361Z,14.90
2022-09-22T05:38:47.095Z,15.27
2022-09-22T05:41:14.418Z,15.30
2022-09-22T05:43:41.757Z,15.30
2022-09-22T05:46:09.253Z,15.77
2022-09-22T05:48:36.672Z,16.43
2022-09-22T05:51:04.085Z,15.43
2022-09-22T05:53:31.501Z,15.13
2022-09-22T05:56:00.911Z,15.33
2022-09-22T05:58:28.280Z,14.57
2022-09-22T06:00:57.506Z,15.97
2022-09-22T06:03:24.916Z,16.07
2022-09-22T06:05:52.284Z,16.00
2022-09-22T06:08:19.616Z,14.97
2022-09-22T06:10:48.945Z,16.00
2022-09-22T06:13:17.727Z,16.23
2022-09-22T06:15:46.430Z,15.60
2022-09-22T06:18:15.303Z,16.53
2022-09-22T06:20:43.557Z,16.53
2022-09-22T06:23:12.521Z,16.23
2022-09-22T06:25:40.193Z,16.00
2022-09-22T06:28:09.561Z,16.40
2022-09-22T06:30:39.998Z,16.73
2022-09-22T06:33:08.024Z,15.83
2022-09-22T06:35:37.535Z,16.03
2022-09-22T06:38:05.990Z,16.27
2022-09-22T06:40:33.801Z,15.83
2022-09-22T06:43:07.538Z,15.53
2022-09-22T06:45:35.291Z,16.57
2022-09-22T06:48:09.488Z,17.13
2022-09-22T06:50:38.050Z,18.03
2022-09-22T06:53:08.161Z,17.27
2022-09-22T06:55:37.053Z,17.93
2022-09-22T06:58:04.839Z,18.23
2022-09-22T07:00:33.503Z,19.63
2022-09-22T07:03:08.541Z,20.30
2022-09-22T07:05:37.425Z,21.83
2022-09-22T07:08:05.621Z,22.60
2022-09-22T07:10:37.640Z,22.40
2022-09-22T07:13:06.211Z,22.67
2022-09-22T07:15:35.565Z,22.53
2022-09-22T07:18:03.042Z,22.87
2022-09-22T07:20:35.601Z,23.43
2022-09-22T07:23:03.008Z,24.07
2022-09-22T07:25:35.766Z,24.50
2022-09-22T07:28:04.901Z,24.33
2022-09-22T07:30:32.396Z,23.73
2022-09-22T07:33:01.641Z,23.30
2022-09-22T07:35:29.204Z,22.73
2022-09-22T07:38:03.209Z,22.37
2022-09-22T07:40:30.607Z,22.17
2022-09-22T07:42:58.058Z,22.50
2022-09-22T07:45:25.474Z,22.70
2022-09-22T07:48:10.452Z,21.77
2022-09-22T07:50:37.873Z,21.70
2022-09-22T07:53:06.824Z,21.30
2022-09-22T07:55:36.714Z,20.80
2022-09-22T07:58:04.201Z,21.60
2022-09-22T08:00:33.037Z,21.40
2022-09-22T08:03:01.412Z,20.93
2022-09-22T08:05:30.117Z,21.17
2022-09-22T08:07:58.259Z,20.57
2022-09-22T08:10:27.362Z,21.30
2022-09-22T08:12:55.112Z,21.77
2022-09-22T08:15:26.793Z,22.20
2022-09-22T08:17:57.401Z,21.63
2022-09-22T08:20:26.220Z,21.70
2022-09-22T08:22:53.833Z,21.43
2022-09-22T08:25:21.274Z,21.53
2022-09-22T08:27:50.001Z,21.30
2022-09-22T08:30:18.823Z,20.93
2022-09-22T08:32:46.733Z,21.27
2022-09-22T08:35:14.272Z,21.37
2022-09-22T08:37:43.692Z,20.90
2022-09-22T08:40:17.987Z,21.07
2022-09-22T08:42:45.522Z,21.13
2022-09-22T08:45:26.776Z,20.93
2022-09-22T08:48:13.608Z,20.93
2022-09-22T08:51:06.296Z,21.00
2022-09-22T08:53:35.154Z,21.07
2022-09-22T08:56:06.923Z,21.00
2022-09-22T08:58:44.573Z,19.90
2022-09-22T09:01:23.119Z,20.30
2022-09-22T09:03:57.648Z,18.20
2022-09-22T09:06:32.028Z,18.50
2022-09-22T09:09:10.530Z,18.70
2022-09-22T09:11:49.645Z,18.77
2022-09-22T09:14:30.308Z,18.43
2022-09-22T09:17:02.474Z,19.40
2022-09-22T09:19:34.307Z,18.70
2022-09-22T09:22:05.701Z,18.30
2022-09-22T09:27:26.956Z,17.83
2022-09-22T09:30:03.025Z,17.87
2022-09-22T09:32:37.703Z,17.90
2022-09-22T09:35:06.591Z,18.40
2022-09-22T09:37:34.914Z,17.83
2022-09-22T09:40:05.101Z,18.43
2022-09-22T09:42:36.163Z,17.43
2022-09-22T09:45:04.164Z,17.97
2022-09-22T09:47:50.047Z,17.57
2022-09-22T09:50:18.717Z,17.80
2022-09-22T09:52:47.298Z,17.50
2022-09-22T09:55:26.739Z,18.10
2022-09-22T09:58:09.335Z,17.83
2022-09-22T10:00:52.817Z,17.90
2022-09-22T10:03:28.506Z,17.70
2022-09-22T10:06:02.627Z,18.20
2022-09-22T10:08:36.349Z,17.57
2022-09-22T10:11:04.935Z,17.80
2022-09-22T10:13:36.331Z,17.77
2022-09-22T10:16:20.281Z,17.07
2022-09-22T10:18:50.229Z,18.43
2022-09-22T10:21:19.206Z,18.40
2022-09-22T10:23:47.584Z,18.13
2022-09-22T10:26:17.830Z,17.70
2022-09-22T10:28:47.117Z,18.30
2022-09-22T10:42:59.470Z,18.80
2022-09-22T10:45:36.938Z,18.03
2022-09-22T10:48:10.259Z,20.50
2022-09-22T10:51:03.486Z,20.00
2022-09-22T10:53:37.551Z,20.37
2022-09-22T10:56:12.353Z,20.50
2022-09-22T10:58:55.193Z,18.10
2022-09-22T11:01:33.785Z,18.53
2022-09-22T11:04:11.966Z,18.57
2022-09-22T11:07:24.073Z,18.57
2022-09-22T11:10:14.113Z,18.33
2022-09-22T11:12:47.906Z,18.10
2022-09-22T11:15:30.744Z,18.50
2022-09-22T11:18:21.511Z,20.20
2022-09-22T11:20:52.243Z,18.87
2022-09-22T11:23:46.479Z,18.70
2022-09-22T11:26:29.859Z,18.23
2022-09-22T11:29:10.973Z,18.37
2022-09-22T11:31:45.287Z,17.57
2022-09-22T11:34:34.132Z,17.70
2022-09-22T11:37:25.519Z,17.90
2022-09-22T11:40:08.556Z,17.77
2022-09-22T11:42:41.453Z,18.03
2022-09-22T11:45:16.993Z,17.97
2022-09-22T11:47:52.585Z,18.30
2022-09-22T11:50:40.780Z,18.20
2022-09-22T11:53:47.802Z,18.13
2022-09-22T11:56:32.994Z,18.30
2022-09-22T11:59:04.005Z,18.07
2022-09-22T12:01:33.273Z,18.00
2022-09-22T12:04:08.983Z,18.27
2022-09-22T12:06:41.172Z,18.27
2022-09-22T12:09:13.588Z,18.20
2022-09-22T12:11:41.821Z,18.20
2022-09-22T12:14:13.622Z,18.13
2022-09-22T12:16:45.674Z,18.30
2022-09-22T12:19:21.804Z,18.50
2022-09-22T12:21:53.458Z,18.10
2022-09-22T12:24:21.202Z,18.10
2022-09-22T12:26:49.972Z,18.57
2022-09-22T12:29:27.148Z,18.13
2022-09-22T12:31:56.594Z,17.67
2022-09-22T12:34:28.004Z,18.10
2022-09-22T12:36:59.310Z,17.87
2022-09-22T12:39:28.884Z,17.83
2022-09-22T12:41:59.981Z,17.77
2022-09-22T12:44:29.665Z,17.90
2022-09-22T12:47:02.175Z,17.90
2022-09-22T12:49:31.669Z,18.10
2022-09-22T12:51:59.222Z,18.20
2022-09-22T12:54:47.367Z,17.43
2022-09-22T12:57:27.583Z,16.90
2022-09-22T13:00:07.485Z,17.40
2022-09-22T13:02:42.881Z,16.83
2022-09-22T13:05:33.913Z,16.70
2022-09-22T13:08:01.674Z,16.80
2022-09-22T13:10:41.387Z,17.00
2022-09-22T13:13:19.756Z,16.40
2022-09-22T13:15:59.277Z,16.67
2022-09-22T13:18:31.577Z,16.70
2022-09-22T13:21:01.744Z,16.23
2022-09-22T13:23:29.756Z,16.27
2022-09-22T13:26:07.501Z,16.58
2022-09-22T13:28:35.056Z,16.50
2022-09-22T13:31:06.260Z,16.10
2022-09-22T13:33:35.626Z,16.40
2022-09-22T13:36:07.073Z,16.20
2022-09-22T13:38:36.898Z,16.40
2022-09-22T13:41:05.249Z,16.10
2022-09-22T13:43:35.083Z,16.47
2022-09-22T13:46:03.293Z,16.30
2022-09-22T13:48:33.881Z,16.57
2022-09-22T13:51:05.486Z,16.50
2022-09-22T13:53:33.373Z,16.63
2022-09-22T13:56:01.026Z,16.47
2022-09-22T13:58:34.369Z,16.67
2022-09-22T14:01:13.046Z,16.33
2022-09-22T14:03:41.090Z,16.50
2022-09-22T14:06:13.482Z,16.37
2022-09-22T14:08:41.611Z,16.60
2022-09-22T14:11:16.331Z,16.60
2022-09-22T14:13:45.127Z,16.50
2022-09-22T14:16:15.995Z,16.27
2022-09-22T14:18:46.605Z,16.57
2022-09-22T14:21:15.561Z,17.13
2022-09-22T14:23:44.916Z,16.70
2022-09-22T14:26:27.517Z,16.40
2022-09-22T14:28:57.687Z,16.20
2022-09-22T14:31:29.098Z,16.03
2022-09-22T14:33:57.236Z,16.20
2022-09-22T14:36:26.726Z,15.73
2022-09-22T14:39:08.194Z,15.80
2022-09-22T14:41:38.096Z,15.80
2022-09-22T14:44:27.248Z,15.70
2022-09-22T14:46:56.292Z,15.60
2022-09-22T14:49:37.357Z,15.53
2022-09-22T14:52:08.476Z,14.57
2022-09-22T14:54:36.013Z,15.63
2022-09-22T14:57:07.123Z,15.77
2022-09-22T14:59:54.318Z,15.90
2022-09-22T15:02:34.223Z,15.60
2022-09-22T15:05:03.595Z,15.67
2022-09-22T15:07:35.634Z,15.83
2022-09-22T15:10:06.401Z,15.63
2022-09-22T15:12:39.754Z,15.50
2022-09-22T15:15:19.307Z,15.87
2022-09-22T15:18:05.714Z,15.80
2022-09-22T15:20:42.431Z,15.50
2022-09-22T15:23:15.738Z,15.40
2022-09-22T15:25:43.612Z,15.50
2022-09-22T15:28:15.742Z,15.60
2022-09-22T15:30:44.550Z,15.33
2022-09-22T15:33:14.565Z,15.00
2022-09-22T15:35:44.531Z,14.63
2022-09-22T15:38:21.704Z,14.80
2022-09-22T15:40:49.119Z,14.97
2022-09-22T15:43:20.649Z,15.17
2022-09-22T15:45:49.379Z,15.50
2022-09-22T15:48:23.285Z,15.93
2022-09-22T15:50:51.017Z,15.47
2022-09-22T15:53:19.797Z,15.33
2022-09-22T15:55:47.839Z,15.27
2022-09-22T15:58:16.745Z,15.23
2022-09-22T16:00:44.193Z,15.50
2022-09-22T16:03:15.322Z,15.53
2022-09-22T16:05:44.647Z,15.50
2022-09-22T16:08:15.943Z,15.13
2022-09-22T16:10:45.342Z,15.50
2022-09-22T16:13:12.929Z,15.33
2022-09-22T16:15:40.495Z,14.80
2022-09-22T16:18:08.410Z,15.40
2022-09-22T16:20:37.889Z,15.33
2022-09-22T16:23:06.310Z,15.40
2022-09-22T16:25:33.923Z,15.50
2022-09-22T16:28:03.270Z,15.40
2022-09-22T16:30:30.622Z,15.60
2022-09-22T16:32:58.017Z,15.50
2022-09-22T16:35:25.501Z,15.07
2022-09-22T16:37:55.777Z,14.77
2022-09-22T16:40:24.688Z,15.57
2022-09-22T16:42:52.456Z,15.50
2022-09-22T16:45:41.155Z,15.53
2022-09-22T16:48:08.553Z,15.60
2022-09-22T16:50:37.553Z,16.00
2022-09-22T16:53:07.150Z,15.90
2022-09-22T16:55:37.315Z,15.77
2022-09-22T16:58:07.219Z,15.50
2022-09-22T17:00:39.207Z,15.50
2022-09-22T17:03:06.682Z,15.70
2022-09-22T17:05:34.198Z,15.73
2022-09-22T17:08:06.471Z,15.40
2022-09-22T17:10:35.472Z,15.73
2022-09-22T17:13:04.758Z,15.43
2022-09-22T17:15:35.712Z,15.17
2022-09-22T17:18:05.085Z,15.10
2022-09-22T17:20:32.478Z,15.20
2022-09-22T17:22:59.885Z,15.10
2022-09-22T17:25:28.905Z,14.97
2022-09-22T17:27:57.160Z,14.70
2022-09-22T17:30:24.843Z,14.80
2022-09-22T17:32:53.440Z,14.27
2022-09-22T17:35:22.169Z,13.80
2022-09-22T17:37:52.088Z,14.03
2022-09-22T17:40:19.571Z,14.07
2022-09-22T17:42:47.618Z,13.77
2022-09-22T17:45:15.654Z,14.17
2022-09-22T17:48:02.437Z,13.40
2022-09-22T17:50:49.043Z,12.93
2022-09-22T17:53:33.717Z,12.63
2022-09-22T17:56:04.986Z,12.93
2022-09-22T17:58:32.728Z,17.77
2022-09-22T18:01:00.145Z,12.67
2022-09-22T18:03:27.805Z,11.73
2022-09-22T18:05:57.249Z,12.10
2022-09-22T18:08:25.077Z,12.00
2022-09-22T18:10:52.405Z,11.70
2022-09-22T18:13:19.756Z,12.07
2022-09-22T18:15:47.274Z,12.00
2022-09-22T18:18:14.810Z,11.30
2022-09-22T18:20:42.733Z,11.23
2022-09-22T18:23:12.334Z,11.27
2022-09-22T18:25:41.236Z,10.70
2022-09-22T18:28:08.657Z,11.20
2022-09-22T18:30:40.064Z,10.67
2022-09-22T18:33:07.419Z,10.93
2022-09-22T18:35:34.825Z,11.17
2022-09-22T18:38:02.251Z,10.50
2022-09-22T18:40:32.312Z,9.87
2022-09-22T18:42:59.739Z,10.40
2022-09-22T18:45:27.727Z,9.67
2022-09-22T18:47:58.984Z,10.83
2022-09-22T18:50:26.958Z,10.93
2022-09-22T18:52:56.633Z,11.20
2022-09-22T18:55:24.016Z,10.13
2022-09-22T18:57:53.991Z,10.47
2022-09-22T19:00:22.084Z,10.77
2022-09-22T19:02:50.210Z,10.50
2022-09-22T19:05:18.009Z,10.63
2022-09-22T19:07:48.254Z,9.90
2022-09-22T19:10:18.763Z,9.90
2022-09-22T19:12:46.339Z,10.00
2022-09-22T19:15:18.484Z,9.03
2022-09-22T19:17:49.116Z,9.47
2022-09-22T19:20:22.321Z,8.80
2022-09-22T19:22:50.273Z,8.90
2022-09-22T19:25:19.977Z,8.50
2022-09-22T19:27:47.362Z,8.43
2022-09-22T19:30:20.548Z,9.07
2022-09-22T19:32:50.753Z,8.23
2022-09-22T19:35:18.349Z,9.20
2022-09-22T19:37:45.805Z,9.53
2022-09-22T19:40:18.461Z,9.53
2022-09-22T19:42:46.006Z,10.90
2022-09-22T19:45:13.549Z,9.20
2022-09-22T19:47:44.521Z,9.00
2022-09-22T19:50:11.937Z,9.87
2022-09-22T19:52:39.448Z,9.93
2022-09-22T19:55:07.877Z,10.20
2022-09-22T19:57:40.968Z,9.77
2022-09-22T20:00:10.177Z,10.63
2022-09-22T20:02:40.493Z,10.20
2022-09-22T20:05:17.673Z,10.30
2022-09-22T20:07:45.061Z,10.13
2022-09-22T20:10:13.204Z,10.70
2022-09-22T20:12:40.726Z,10.47
2022-09-22T20:15:08.832Z,10.03
2022-09-22T20:17:36.186Z,10.33
2022-09-22T20:20:03.625Z,11.43
2022-09-22T20:22:32.960Z,11.40
2022-09-22T20:25:01.950Z,12.20
2022-09-22T20:27:31.481Z,12.33
2022-09-22T20:30:02.372Z,12.30
2022-09-22T20:32:32.009Z,12.40
2022-09-22T20:34:59.790Z,13.20
2022-09-22T20:37:27.371Z,12.50
2022-09-22T20:39:57.384Z,15.43
2022-09-22T20:42:25.662Z,14.70
2022-09-22T20:44:53.314Z,15.57
2022-09-22T20:47:21.849Z,13.63
2022-09-22T20:49:51.916Z,11.43
2022-09-22T20:52:20.987Z,9.83
2022-09-22T20:54:49.232Z,9.77
2022-09-22T20:57:18.882Z,9.20
2022-09-22T20:59:47.419Z,9.80
2022-09-22T21:02:15.878Z,8.83
2022-09-22T21:04:43.634Z,9.80
2022-09-22T21:07:11.405Z,9.40
2022-09-22T21:09:56.931Z,9.90
2022-09-22T21:12:31.093Z,10.23
2022-09-22T21:14:59.261Z,10.37
2022-09-22T21:17:27.575Z,11.23
2022-09-22T21:19:57.008Z,12.40
2022-09-22T21:22:24.707Z,12.50
2022-09-22T21:24:52.491Z,13.40
2022-09-22T21:27:20.478Z,12.87
2022-09-22T21:29:51.703Z,12.30
2022-09-22T21:32:19.900Z,12.60
2022-09-22T21:34:47.466Z,13.13
2022-09-22T21:37:15.441Z,13.27
2022-09-22T21:39:43.112Z,13.50
2022-09-22T21:42:10.743Z,13.50
2022-09-22T21:44:39.062Z,13.40
2022-09-22T21:47:08.029Z,13.07
2022-09-22T21:49:35.501Z,13.37
2022-09-22T21:52:03.023Z,13.80
2022-09-22T21:54:31.042Z,13.93
2022-09-22T21:56:58.465Z,13.73
2022-09-22T21:59:25.874Z,13.37
2022-09-22T22:01:53.274Z,13.53
2022-09-22T22:04:22.037Z,13.53
2022-09-22T22:06:49.409Z,14.00
2022-09-22T22:09:18.631Z,13.67
2022-09-22T22:11:48.995Z,13.77
2022-09-22T22:14:18.334Z,14.03
2022-09-22T22:16:46.982Z,14.27
2022-09-22T22:19:17.055Z,13.83
2022-09-22T22:21:46.645Z,14.03
2022-09-22T22:24:28.412Z,14.20
2022-09-22T22:26:57.390Z,14.00
2022-09-22T22:29:26.933Z,13.00
2022-09-22T22:31:54.648Z,14.60
2022-09-22T22:34:25.466Z,14.23
2022-09-22T22:36:54.928Z,14.43
2022-09-22T22:39:22.753Z,14.63
2022-09-22T22:41:50.163Z,14.50
2022-09-22T22:44:18.835Z,15.10
2022-09-22T22:46:46.748Z,15.23
2022-09-22T22:49:14.568Z,15.00
2022-09-22T22:51:43.019Z,14.77
2022-09-22T22:54:12.526Z,15.13
2022-09-22T22:56:42.433Z,15.43
2022-09-22T22:59:11.223Z,16.10
2022-09-22T23:01:40.202Z,14.67
2022-09-22T23:04:08.824Z,14.40
2022-09-22T23:06:38.782Z,15.03
2022-09-22T23:09:08.113Z,14.53
2022-09-22T23:11:39.626Z,13.93
2022-09-22T23:14:11.255Z,13.33
2022-09-22T23:16:40.523Z,13.50
2022-09-22T23:19:10.778Z,12.67
2022-09-22T23:21:40.674Z,12.83
2022-09-22T23:24:08.881Z,12.67
2022-09-22T23:26:38.077Z,12.90
2022-09-22T23:29:06.612Z,13.33
2022-09-22T23:31:34.289Z,12.93
2022-09-22T23:34:01.701Z,12.53
2022-09-22T23:36:30.165Z,12.33
2022-09-22T23:39:01.815Z,12.43
2022-09-22T23:41:29.301Z,11.97
2022-09-22T23:43:58.062Z,12.20
2022-09-22T23:46:25.460Z,12.80
2022-09-22T23:48:53.262Z,12.60
2022-09-22T23:51:20.653Z,12.47
2022-09-22T23:53:48.167Z,12.60
2022-09-22T23:56:15.688Z,12.87
2022-09-22T23:58:43.092Z,13.20
